Flight Track Log - Related Links

Times and Time Zones

All times are in EDT time to prevent confusion due to time zone crossing. See the AAL1459 flight status page for this flight to view local times or setup timezone preferences in your user account.

Time Position Orientation Groundspeed Altitude Reporting Facility
EDT Latitude Longitude Course Direction KTS MPH feet Rate Location/Type
Tue 06:57:39 PM 41.9620 -87.8890 216° Southwest 125 144  Level FlightAware ADS-B
Tue 06:57:59 PM 41.9510 -87.9020 221° Southwest 167 192 900 2,743 Climbing FlightAware ADS-B
Tue 06:58:14 PM 41.9430 -87.9140 228° Southwest 169 194 1,600 2,842 Climbing FlightAware ADS-B
Tue 06:58:18 PM 41.9410 -87.9180 236° Southwest 169 194 1,800 2,000 Climbing FlightAware ADS-B
Tue 06:58:26 PM 41.9400 -87.9260 260° West 172 198 2,000 1,655 Climbing FlightAware ADS-B
Tue 06:58:47 PM 41.9400 -87.9480 270° West 182 209 2,600 1,867 Climbing FlightAware ADS-B
Tue 06:59:11 PM 41.9380 -87.9770 265° West 197 227 3,400 1,636 Climbing FlightAware ADS-B
Tue 06:59:31 PM 41.9370 -88.0020 267° West 223 257 3,800 1,105 Climbing FlightAware ADS-B
Tue 06:59:49 PM 41.9360 -88.0300 267° West 253 291 4,100 1,538 Climbing FlightAware ADS-B
Tue 07:00:10 PM 41.9350 -88.0660 268° West 272 313 4,800 2,533 Climbing FlightAware ADS-B
Tue 07:00:34 PM 41.9330 -88.1050 266° West 267 307 6,000 2,727 Climbing FlightAware ADS-B
Tue 07:00:54 PM 41.9310 -88.1370 265° West 268 308 6,800 2,550 Climbing FlightAware ADS-B
Tue 07:01:14 PM 41.9290 -88.1720 266° West 272 313 7,700 2,432 Climbing FlightAware ADS-B
Tue 07:01:31 PM 41.9270 -88.1980 264° West 276 318 8,300 2,432 Climbing FlightAware ADS-B
Tue 07:01:51 PM 41.9240 -88.2340 264° West 277 319 9,200 2,550 Climbing FlightAware ADS-B
Tue 07:02:11 PM 41.9220 -88.2680 265° West 281 323 10,000 2,222 Climbing FlightAware ADS-B
Tue 07:02:45 PM 41.9180 -88.3300 265° West 295 339 11,200 2,314 Climbing FlightAware ADS-B
Tue 07:03:21 PM 41.9170 -88.3950 269° West 298 343 12,700 2,364 Climbing FlightAware ADS-B
Tue 07:03:51 PM 41.9160 -88.4470 269° West 305 351 13,800 2,282 Climbing FlightAware ADS-B
Tue 07:04:32 PM 41.9090 -88.5280 263° West 323 372 15,400 1,750 Climbing FlightAware ADS-B
Tue 07:05:03 PM 41.9000 -88.5950 260° West 355 409 15,900 1,130 Climbing FlightAware ADS-B
Tue 07:05:41 PM 41.8880 -88.6800 259° West 382 440 16,700 1,784 Climbing FlightAware ADS-B
Tue 07:06:17 PM 41.8760 -88.7660 259° West 388 447 18,100 2,143 Climbing FlightAware ADS-B
Tue 07:06:51 PM 41.8640 -88.8470 259° West 397 457 19,200 2,057 Climbing FlightAware ADS-B
Tue 07:07:27 PM 41.8500 -88.9340 258° West 400 460 20,500 2,118 Climbing FlightAware ADS-B
Tue 07:07:59 PM 41.8460 -89.0120 266° West 400 460 21,600 2,000 Climbing FlightAware ADS-B
Tue 07:08:48 PM 41.8460 -89.1350 270° West 404 465 23,200 1,835 Climbing FlightAware ADS-B
Tue 07:09:24 PM 41.8470 -89.2250 271° West 409 471 24,200 1,667 Climbing FlightAware ADS-B
Tue 07:10:00 PM 41.8480 -89.3170 271° West 413 475 25,200 1,676 Climbing FlightAware ADS-B
Tue 07:10:32 PM 41.8470 -89.4010 269° West 419 482 26,100 1,548 Climbing FlightAware ADS-B
Tue 07:11:02 PM 41.8440 -89.4800 267° West 421 484 26,800 1,462 Climbing FlightAware ADS-B
Tue 07:11:50 PM 41.8410 -89.6010 268° West 423 487 28,000 1,465 Climbing FlightAware ADS-B
Tue 07:12:28 PM 41.8380 -89.7040 268° West 426 490 28,900 1,216 Climbing FlightAware ADS-B
Tue 07:13:04 PM 41.8360 -89.7960 268° West 430 495 29,500 1,147 Climbing FlightAware ADS-B
Tue 07:13:36 PM 41.8330 -89.8810 267° West 431 496 30,200 1,364 Climbing FlightAware ADS-B
Tue 07:14:10 PM 41.8310 -89.9690 268° West 431 496 31,000 1,333 Climbing FlightAware ADS-B
Tue 07:14:48 PM 41.8280 -90.0720 268° West 433 498 31,800 1,216 Climbing FlightAware ADS-B
Tue 07:15:24 PM 41.8250 -90.1690 268° West 434 499 32,500 1,273 Climbing FlightAware ADS-B
Tue 07:15:54 PM 41.8230 -90.2490 268° West 430 495 33,200 1,565 Climbing FlightAware ADS-B
Tue 07:16:33 PM 41.8190 -90.3550 267° West 422 486 34,300 1,739 Climbing FlightAware ADS-B
Tue 07:17:03 PM 41.8170 -90.4330 268° West 414 476 35,200 1,455 Climbing FlightAware ADS-B
Tue 07:17:39 PM 41.8140 -90.5250 268° West 409 471 35,900 649 Climbing FlightAware ADS-B
Tue 07:18:17 PM 41.8110 -90.6210 268° West 410 472 36,000 83 Climbing FlightAware ADS-B
Tue 07:18:51 PM 41.8080 -90.7080 267° West 409 471 36,000  Level FlightAware ADS-B
Tue 07:19:25 PM 41.8040 -90.7940 266° West 409 471 36,000  Level FlightAware ADS-B
Tue 07:20:00 PM 41.8010 -90.8790 267° West 409 471 36,000  Level FlightAware ADS-B
Tue 07:20:35 PM 41.7980 -90.9680 267° West 408 470 36,000  Level FlightAware ADS-B
Tue 07:21:13 PM 41.7940 -91.0670 267° West 409 471 36,000  Level FlightAware ADS-B
Tue 07:21:44 PM 41.7920 -91.1420 268° West 409 471 36,000  Level FlightAware ADS-B
Tue 07:22:21 PM 41.7880 -91.2370 267° West 410 472 36,000  Level FlightAware ADS-B
Tue 07:22:59 PM 41.7840 -91.3320 267° West 410 472 36,000  Level FlightAware ADS-B
Tue 07:23:47 PM 41.7790 -91.4550 267° West 409 471 36,000  Level FlightAware ADS-B
Tue 07:24:22 PM 41.7750 -91.5420 267° West 409 471 36,000  Level FlightAware ADS-B
Tue 07:24:56 PM 41.7720 -91.6170 267° West 409 471 36,000  Level FlightAware ADS-B
Tue 07:25:31 PM 41.7680 -91.7190 267° West 407 468 36,000  Level FlightAware ADS-B
Tue 07:26:07 PM 41.7640 -91.8080 267° West 407 468 36,000  Level FlightAware ADS-B
Tue 07:26:41 PM 41.7600 -91.8940 266° West 408 470 36,000  Level FlightAware ADS-B
Tue 07:27:16 PM 41.7560 -91.9800 266° West 408 470 36,000  Level FlightAware ADS-B
Tue 07:27:51 PM 41.7520 -92.0710 267° West 408 470 36,000  Level FlightAware ADS-B
Tue 07:28:23 PM 41.7480 -92.1460 266° West 409 471 36,000  Level FlightAware ADS-B
Tue 07:29:09 PM 41.7420 -92.2670 266° West 409 471 36,000  Level FlightAware ADS-B
Tue 07:29:42 PM 41.7380 -92.3490 266° West 409 471 36,000  Level FlightAware ADS-B
Tue 07:30:17 PM 41.7340 -92.4390 267° West 410 472 36,000  Level FlightAware ADS-B
Tue 07:30:53 PM 41.7290 -92.5290 266° West 411 473 36,000  Level FlightAware ADS-B
Tue 07:31:30 PM 41.7240 -92.6230 266° West 413 475 36,000  Level FlightAware ADS-B
Tue 07:32:01 PM 41.7200 -92.7000 266° West 412 474 36,000  Level FlightAware ADS-B
Tue 07:32:37 PM 41.7160 -92.7920 267° West 414 476 36,000  Level FlightAware ADS-B
Tue 07:33:12 PM 41.7110 -92.8820 266° West 414 476 36,000  Level FlightAware ADS-B
Tue 07:33:49 PM 41.7060 -92.9780 266° West 414 476 36,000  Level FlightAware ADS-B
Tue 07:34:21 PM 41.7010 -93.0600 265° West 414 476 36,000  Level FlightAware ADS-B
Tue 07:34:58 PM 41.6960 -93.1520 266° West 413 475 36,000  Level FlightAware ADS-B
Tue 07:35:33 PM 41.6910 -93.2430 266° West 412 474 36,000  Level FlightAware ADS-B
Tue 07:36:05 PM 41.6860 -93.3230 265° West 412 474 36,000  Level FlightAware ADS-B
Tue 07:36:43 PM 41.6810 -93.4170 266° West 413 475 36,000  Level FlightAware ADS-B
Tue 07:37:12 PM 41.6770 -93.4880 266° West 413 475 36,000 237 Level FlightAware ADS-B
Tue 07:37:59 PM 41.6690 -93.6110 265° West 416 479 36,300 585 Climbing FlightAware ADS-B
Tue 07:38:34 PM 41.6640 -93.7000 266° West 413 475 36,800 892 Climbing FlightAware ADS-B
Tue 07:39:13 PM 41.6580 -93.8010 265° West 409 471 37,400 870 Climbing FlightAware ADS-B
Tue 07:39:43 PM 41.6530 -93.8760 265° West 408 470 37,800 529 Climbing FlightAware ADS-B
Tue 07:40:21 PM 41.6470 -93.9700 265° West 410 472 38,000 171 Climbing FlightAware ADS-B
Tue 07:40:53 PM 41.6420 -94.0530 265° West 410 472 38,000  Level FlightAware ADS-B
Tue 07:41:30 PM 41.6360 -94.1440 265° West 410 472 38,000  Level FlightAware ADS-B
Tue 07:42:05 PM 41.6300 -94.2320 265° West 411 473 38,000  Level FlightAware ADS-B
Tue 07:42:42 PM 41.6240 -94.3250 265° West 411 473 38,000  Level FlightAware ADS-B
Tue 07:43:19 PM 41.6180 -94.4210 265° West 411 473 38,000  Level FlightAware ADS-B
Tue 07:43:51 PM 41.6120 -94.4980 264° West 411 473 38,000  Level FlightAware ADS-B
Tue 07:44:27 PM 41.6060 -94.5930 265° West 412 474 38,000  Level FlightAware ADS-B
Tue 07:45:03 PM 41.6000 -94.6800 265° West 413 475 38,000  Level FlightAware ADS-B
Tue 07:45:33 PM 41.5940 -94.7600 264° West 414 476 38,000  Level FlightAware ADS-B
Tue 07:46:13 PM 41.5870 -94.8620 265° West 415 478 38,000  Level FlightAware ADS-B
Tue 07:46:48 PM 41.5810 -94.9500 265° West 417 480 38,000  Level FlightAware ADS-B
Tue 07:47:28 PM 41.5730 -95.0480 264° West 417 480 38,000  Level FlightAware ADS-B
Tue 07:48:05 PM 41.5660 -95.1430 264° West 419 482 38,000  Level FlightAware ADS-B
Tue 07:48:40 PM 41.5600 -95.2350 265° West 419 482 38,000  Level FlightAware ADS-B
Tue 07:49:20 PM 41.5520 -95.3390 264° West 419 482 38,000  Level FlightAware ADS-B
Tue 07:49:56 PM 41.5450 -95.4270 264° West 419 482 38,000  Level FlightAware ADS-B
Tue 07:50:36 PM 41.5370 -95.5340 264° West 419 482 38,000  Level FlightAware ADS-B
Tue 07:51:13 PM 41.5300 -95.6270 264° West 418 481 38,000  Level FlightAware ADS-B
Tue 07:51:52 PM 41.5220 -95.7300 264° West 418 481 38,000  Level FlightAware ADS-B
Tue 07:52:29 PM 41.5140 -95.8220 263° West 417 480 38,000  Level FlightAware ADS-B
Tue 07:53:04 PM 41.5070 -95.9150 264° West 417 480 38,000  Level FlightAware ADS-B
Tue 07:53:36 PM 41.5010 -95.9950 264° West 416 479 38,000  Level FlightAware ADS-B
Tue 07:54:13 PM 41.5010 -96.0910 270° West 413 475 38,000  Level FlightAware ADS-B
Tue 07:54:51 PM 41.5010 -96.1850 270° West 413 475 38,000  Level FlightAware ADS-B
Tue 07:55:27 PM 41.5020 -96.2770 271° West 412 474 38,000  Level FlightAware ADS-B
Tue 07:55:58 PM 41.5030 -96.3550 271° West 412 474 38,000  Level FlightAware ADS-B
Tue 07:56:32 PM 41.5030 -96.4400 270° West 413 475 38,000  Level FlightAware ADS-B
Tue 07:57:11 PM 41.5030 -96.5410 270° West 413 475 38,000  Level FlightAware ADS-B
Tue 07:57:46 PM 41.5040 -96.6300 271° West 414 476 38,000  Level FlightAware ADS-B
Tue 07:58:18 PM 41.5040 -96.7090 270° West 415 478 38,000  Level FlightAware ADS-B
Tue 07:58:55 PM 41.5040 -96.8070 270° West 416 479 38,000  Level FlightAware ADS-B
Tue 07:59:30 PM 41.5040 -96.8940 270° West 417 480 38,000  Level FlightAware ADS-B
Tue 08:00:02 PM 41.5040 -96.9790 270° West 417 480 38,000  Level FlightAware ADS-B
Tue 08:00:35 PM 41.5040 -97.0580 270° West 418 481 38,000  Level FlightAware ADS-B
Tue 08:01:16 PM 41.5040 -97.1630 270° West 418 481 38,000  Level FlightAware ADS-B
Tue 08:01:51 PM 41.5040 -97.2550 270° West 418 481 38,000  Level FlightAware ADS-B
Tue 08:02:21 PM 41.5040 -97.3290 270° West 418 481 38,000  Level FlightAware ADS-B
Tue 08:03:00 PM 41.5030 -97.4350 269° West 418 481 38,000  Level FlightAware ADS-B
Tue 08:03:36 PM 41.5030 -97.5290 270° West 418 481 38,000  Level FlightAware ADS-B
Tue 08:04:11 PM 41.5030 -97.6140 270° West 418 481 38,000  Level FlightAware ADS-B
Tue 08:04:52 PM 41.5020 -97.7240 269° West 417 480 38,000  Level FlightAware ADS-B
Tue 08:05:27 PM 41.5010 -97.8140 269° West 418 481 38,000  Level FlightAware ADS-B
Tue 08:06:03 PM 41.5010 -97.9050 270° West 418 481 38,000  Level FlightAware ADS-B
Tue 08:06:34 PM 41.5000 -97.9860 269° West 419 482 38,000  Level FlightAware ADS-B
Tue 08:07:11 PM 41.5000 -98.0830 270° West 419 482 38,000  Level FlightAware ADS-B
Tue 08:07:41 PM 41.5010 -98.1550 271° West 419 482 38,000  Level FlightAware ADS-B
Tue 08:08:36 PM 41.5020 -98.2980 271° West 419 482 38,000  Level FlightAware ADS-B
Tue 08:09:11 PM 41.5030 -98.3810 271° West 418 481 38,000  Level FlightAware ADS-B
Tue 08:09:54 PM 41.5030 -98.4720 270° West 418 481 38,000  Level FlightAware ADS-B
Tue 08:10:31 PM 41.5040 -98.5940 271° West 418 481 38,000  Level FlightAware ADS-B
Tue 08:11:16 PM 41.5040 -98.6930 270° West 418 481 38,000  Level FlightAware ADS-B
Tue 08:11:52 PM 41.5040 -98.7720 270° West 418 481 38,000  Level FlightAware ADS-B
Tue 08:12:29 PM 41.5040 -98.8530 270° West 418 481 38,000  Level FlightAware ADS-B
Tue 08:13:05 PM 41.5030 -98.9320 269° West 418 481 38,000  Level FlightAware ADS-B
Tue 08:13:41 PM 41.5030 -99.0110 270° West 418 481 38,000  Level FlightAware ADS-B
Tue 08:14:18 PM 41.5030 -99.0920 270° West 418 481 38,000  Level FlightAware ADS-B
Tue 08:14:54 PM 41.5030 -99.1710 270° West 418 481 38,000  Level FlightAware ADS-B
Tue 08:15:30 PM 41.5030 -99.2500 270° West 418 481 38,000  Level FlightAware ADS-B
Tue 08:16:06 PM 41.5030 -99.3290 270° West 418 481 38,000  Level FlightAware ADS-B
Tue 08:16:42 PM 41.5030 -99.4090 270° West 418 481 38,000  Level FlightAware ADS-B
Tue 08:17:18 PM 41.5030 -99.4880 270° West 418 481 38,000  Level FlightAware ADS-B
Tue 08:17:54 PM 41.5030 -99.5670 270° West 418 481 38,000  Level FlightAware ADS-B
Tue 08:18:31 PM 41.5030 -99.6480 270° West 418 481 38,000  Level FlightAware ADS-B
Tue 08:19:08 PM 41.5030 -99.7290 270° West 418 481 38,000  Level FlightAware ADS-B
Tue 08:19:44 PM 41.5030 -99.8080 270° West 418 481 38,000  Level FlightAware ADS-B
Tue 08:20:20 PM 41.5030 -99.8870 270° West 418 481 38,000  Level FlightAware ADS-B
Tue 08:25:47 PM 41.5040 -100.9960 270° West 428 493 38,000  Level FlightAware ADS-B
Tue 08:26:21 PM 41.5040 -101.0860 270° West 427 491 38,000  Level FlightAware ADS-B
Tue 08:26:54 PM 41.5040 -101.1740 270° West 426 490 38,000  Level FlightAware ADS-B
Tue 08:27:26 PM 41.5040 -101.2600 270° West 425 489 38,000  Level FlightAware ADS-B
Tue 08:28:06 PM 41.5040 -101.3620 270° West 425 489 38,000  Level FlightAware ADS-B
Tue 08:28:42 PM 41.5030 -101.4580 269° West 426 490 38,000  Level FlightAware ADS-B
Tue 08:29:14 PM 41.5030 -101.5420 270° West 426 490 38,000  Level FlightAware ADS-B
Tue 08:29:50 PM 41.5030 -101.6360 270° West 426 490 38,000  Level FlightAware ADS-B
Tue 08:30:26 PM 41.5020 -101.7300 269° West 426 490 38,000  Level FlightAware ADS-B
Tue 08:31:01 PM 41.5010 -101.8150 269° West 426 490 38,000  Level FlightAware ADS-B
Tue 08:31:33 PM 41.5000 -101.9010 269° West 427 491 38,000  Level FlightAware ADS-B
Tue 08:32:12 PM 41.5000 -102.0090 270° West 426 490 38,000  Level FlightAware ADS-B
Tue 08:32:44 PM 41.5000 -102.0930 270° West 426 490 38,000  Level FlightAware ADS-B
Tue 08:33:21 PM 41.5020 -102.1880 272° West 428 493 38,000  Level FlightAware ADS-B
Tue 08:33:58 PM 41.5020 -102.2850 270° West 429 494 38,000  Level FlightAware ADS-B
Tue 08:34:31 PM 41.5030 -102.3730 271° West 429 494 38,000  Level FlightAware ADS-B
Tue 08:35:04 PM 41.5030 -102.4630 270° West 430 495 38,000  Level FlightAware ADS-B
Tue 08:35:53 PM 41.5030 -102.5800 270° West 429 494 38,000  Level FlightAware ADS-B
Tue 08:36:30 PM 41.5030 -102.6630 270° West 429 494 38,000  Level FlightAware ADS-B
Tue 08:37:06 PM 41.5030 -102.7440 270° West 429 494 38,000  Level FlightAware ADS-B
Tue 08:37:36 PM 41.5040 -102.8590 271° West 427 491 38,000  Level FlightAware ADS-B
Tue 08:38:10 PM 41.5040 -102.9500 270° West 427 491 38,000  Level FlightAware ADS-B
Tue 08:38:49 PM 41.5040 -103.0490 270° West 428 493 38,000  Level FlightAware ADS-B
Tue 08:39:38 PM 41.5040 -103.1660 270° West 428 493 38,000  Level FlightAware ADS-B
Tue 08:40:10 PM 41.5040 -103.2630 270° West 428 493 38,000  Level FlightAware ADS-B
Tue 08:40:49 PM 41.5040 -103.3670 270° West 427 491 38,000  Level FlightAware ADS-B
Tue 08:41:23 PM 41.5030 -103.4560 269° West 426 490 38,000  Level FlightAware ADS-B
Tue 08:41:55 PM 41.5030 -103.5420 270° West 426 490 38,000  Level FlightAware ADS-B
Tue 08:42:33 PM 41.5050 -103.6360 272° West 426 490 38,000  Level FlightAware ADS-B
Tue 08:43:07 PM 41.5110 -103.7280 275° West 424 488 38,000  Level FlightAware ADS-B
Tue 08:43:45 PM 41.5200 -103.8230 277° West 421 484 38,000  Level FlightAware ADS-B
Tue 08:44:17 PM 41.5270 -103.9040 277° West 421 484 38,000  Level FlightAware ADS-B
Tue 08:44:53 PM 41.5370 -104.0030 278° West 420 483 38,000  Level FlightAware ADS-B
Tue 08:45:31 PM 41.5460 -104.0980 277° West 420 483 38,000  Level FlightAware ADS-B
Tue 08:46:04 PM 41.5540 -104.1830 277° West 421 484 38,000  Level FlightAware ADS-B
Tue 08:46:39 PM 41.5630 -104.2730 278° West 421 484 38,000  Level FlightAware ADS-B
Tue 08:47:15 PM 41.5730 -104.3650 278° West 423 487 38,000  Level FlightAware ADS-B
Tue 08:47:47 PM 41.5820 -104.4500 278° West 424 488 38,000  Level FlightAware ADS-B
Tue 08:48:24 PM 41.5910 -104.5450 277° West 425 489 38,000  Level FlightAware ADS-B
Tue 08:49:01 PM 41.5950 -104.6420 273° West 427 491 38,000  Level FlightAware ADS-B
Tue 08:49:49 PM 41.5910 -104.7640 268° West 427 491 38,000  Level FlightAware ADS-B
Tue 08:50:23 PM 41.5830 -104.8500 263° West 427 491 38,000  Level FlightAware ADS-B
Tue 08:51:05 PM 41.5720 -104.9640 263° West 428 493 38,000  Level FlightAware ADS-B
Tue 08:51:41 PM 41.5640 -105.0610 264° West 429 494 38,000  Level FlightAware ADS-B
Tue 08:52:17 PM 41.5550 -105.1560 263° West 430 495 38,000  Level FlightAware ADS-B
Tue 08:52:47 PM 41.5480 -105.2340 263° West 430 495 38,000  Level FlightAware ADS-B
Tue 08:53:25 PM 41.5380 -105.3340 262° West 431 496 38,000  Level FlightAware ADS-B
Tue 08:54:01 PM 41.5290 -105.4300 263° West 432 497 38,000  Level FlightAware ADS-B
Tue 08:54:36 PM 41.5210 -105.5200 263° West 429 494 38,000  Level FlightAware ADS-B
Tue 08:55:17 PM 41.5100 -105.6260 262° West 426 490 38,000  Level FlightAware ADS-B
Tue 08:55:53 PM 41.5010 -105.7220 263° West 427 491 38,000  Level FlightAware ADS-B
Tue 08:56:25 PM 41.4930 -105.8060 263° West 427 491 38,000  Level FlightAware ADS-B
Tue 08:57:01 PM 41.4840 -105.9000 263° West 426 490 38,000  Level FlightAware ADS-B
Tue 08:57:37 PM 41.4740 -105.9920 262° West 424 488 38,000  Level FlightAware ADS-B
Tue 08:58:09 PM 41.4660 -106.0760 263° West 424 488 38,000  Level FlightAware ADS-B
Tue 08:58:47 PM 41.4560 -106.1730 262° West 423 487 38,000  Level FlightAware ADS-B
Tue 08:59:20 PM 41.4480 -106.2570 263° West 422 486 38,000  Level FlightAware ADS-B
Tue 08:59:54 PM 41.4390 -106.3420 262° West 422 486 38,000  Level FlightAware ADS-B
Tue 09:00:36 PM 41.4290 -106.4360 262° West 422 486 38,000  Level FlightAware ADS-B
Tue 09:01:12 PM 41.4210 -106.5150 262° West 422 486 38,000  Level FlightAware ADS-B
Tue 09:01:52 PM 41.4070 -106.6480 262° West 421 484 38,000  Level FlightAware ADS-B
Tue 09:02:29 PM 41.3980 -106.7290 262° West 421 484 38,000  Level FlightAware ADS-B
Tue 09:03:05 PM 41.3900 -106.8070 262° West 421 484 38,000  Level FlightAware ADS-B
Tue 09:03:41 PM 41.3820 -106.8860 262° West 421 484 38,000  Level FlightAware ADS-B
Tue 09:04:17 PM 41.3730 -106.9650 261° West 421 484 38,000  Level FlightAware ADS-B
Tue 09:04:53 PM 41.3650 -107.0430 262° West 421 484 38,000  Level FlightAware ADS-B
Tue 09:05:29 PM 41.3570 -107.1220 262° West 421 484 38,000  Level FlightAware ADS-B
Tue 09:06:05 PM 41.3480 -107.2010 261° West 421 484 38,000  Level FlightAware ADS-B
Tue 09:06:43 PM 41.3400 -107.2840 263° West 421 484 38,000  Level FlightAware ADS-B
Tue 09:07:19 PM 41.3310 -107.3620 261° West 421 484 38,000  Level FlightAware ADS-B
Tue 09:07:55 PM 41.3230 -107.4410 262° West 421 484 38,000  Level FlightAware ADS-B
Tue 09:08:31 PM 41.3150 -107.5190 262° West 421 484 38,000  Level FlightAware ADS-B
Tue 09:09:07 PM 41.3060 -107.5980 261° West 421 484 38,000  Level FlightAware ADS-B
Tue 09:09:44 PM 41.2980 -107.6790 263° West 421 484 38,000  Level FlightAware ADS-B
Tue 09:10:20 PM 41.2890 -107.7570 261° West 421 484 38,000  Level FlightAware ADS-B
Tue 09:10:57 PM 41.2810 -107.8380 263° West 421 484 38,000  Level FlightAware ADS-B
Tue 09:11:33 PM 41.2730 -107.9170 262° West 421 484 38,000  Level FlightAware ADS-B
Tue 09:12:20 PM 41.4289 -108.2381 262° West 418 481 38,000  Level Denver Center
Tue 09:13:22 PM 41.3894 -108.4011 252° West 414 476 38,000  Level Denver Center
Tue 09:14:23 PM 41.3586 -108.5414 254° West 413 475 38,000  Level Denver Center
Tue 09:15:39 PM 41.3319 -108.7364 260° West 416 479 38,000  Level Salt Lake Center
Tue 09:16:41 PM 41.3100 -108.8808 259° West 413 475 38,000  Level Salt Lake Center
Tue 09:17:42 PM 41.2847 -109.0558 259° West 425 489 38,000  Level Salt Lake Center
Tue 09:18:44 PM 41.2608 -109.2067 258° West 429 494 38,000  Level Salt Lake Center
Tue 09:19:45 PM 41.2408 -109.3567 260° West 428 493 38,000  Level Salt Lake Center
Tue 09:20:47 PM 41.2144 -109.5292 259° West 426 490 38,000  Level Salt Lake Center
Tue 09:21:49 PM 41.1936 -109.6756 259° West 423 487 38,000  Level Salt Lake Center
Tue 09:27:02 PM 41.0675 -110.4810 259° West 418 481 38,000  Level FlightAware ADS-B
Tue 09:27:33 PM 41.0551 -110.5590 258° West 420 483 38,000  Level FlightAware ADS-B
Tue 09:28:03 PM 41.0428 -110.6360 258° West 422 486 38,000  Level FlightAware ADS-B
Tue 09:28:34 PM 41.0302 -110.7130 258° West 425 489 38,000  Level FlightAware ADS-B
Tue 09:29:04 PM 41.0178 -110.7890 258° West 423 487 38,000  Level FlightAware ADS-B
Tue 09:29:34 PM 41.0053 -110.8650 258° West 425 489 38,000  Level FlightAware ADS-B
Tue 09:30:04 PM 40.9928 -110.9410 258° West 425 489 38,000  Level FlightAware ADS-B
Tue 09:30:34 PM 40.9802 -111.0180 258° West 427 491 38,000  Level FlightAware ADS-B
Tue 09:31:05 PM 40.9676 -111.0950 258° West 427 491 38,000  Level FlightAware ADS-B
Tue 09:31:35 PM 40.9546 -111.1730 258° West 426 490 38,000  Level FlightAware ADS-B
Tue 09:32:05 PM 40.9418 -111.2490 257° West 427 491 38,000  Level FlightAware ADS-B
Tue 09:32:35 PM 40.9288 -111.3260 257° West 427 491 38,000  Level FlightAware ADS-B
Tue 09:33:06 PM 40.9156 -111.4040 257° West 427 491 38,000  Level FlightAware ADS-B
Tue 09:33:37 PM 40.9026 -111.4820 258° West 427 491 38,000  Level FlightAware ADS-B
Tue 09:34:07 PM 40.8895 -111.5590 257° West 425 489 38,000  Level FlightAware ADS-B
Tue 09:34:37 PM 40.8765 -111.6350 257° West 423 487 38,000  Level FlightAware ADS-B
Tue 09:35:08 PM 40.8633 -111.7120 257° West 423 487 38,000  Level FlightAware ADS-B
Tue 09:35:40 PM 40.8493 -111.7940 257° West 424 488 38,000  Level FlightAware ADS-B
Tue 09:36:04 PM 40.8397 -111.8540 258° West 424 488 38,000  Level FlightAware ADS-B
Tue 09:36:35 PM 40.8335 -111.9320 264° West 424 488 38,000  Level FlightAware ADS-B
Tue 09:37:06 PM 40.8274 -112.0130 264° West 422 486 38,000  Level FlightAware ADS-B
Tue 09:37:37 PM 40.8215 -112.0900 264° West 420 483 38,000  Level FlightAware ADS-B
Tue 09:38:07 PM 40.8153 -112.1680 264° West 419 482 38,000  Level FlightAware ADS-B
Tue 09:38:38 PM 40.8089 -112.2470 264° West 419 482 38,000  Level FlightAware ADS-B
Tue 09:39:08 PM 40.8029 -112.3230 264° West 418 481 38,000  Level FlightAware ADS-B
Tue 09:39:41 PM 40.7963 -112.4050 264° West 418 481 38,000  Level FlightAware ADS-B
Tue 09:40:11 PM 40.7900 -112.4810 264° West 418 481 38,000  Level FlightAware ADS-B
Tue 09:40:42 PM 40.7836 -112.5600 264° West 419 482 38,000  Level FlightAware ADS-B
Tue 09:41:13 PM 40.7772 -112.6380 264° West 420 483 38,000  Level FlightAware ADS-B
Tue 09:41:43 PM 40.7707 -112.7160 264° West 423 487 38,000  Level FlightAware ADS-B
Tue 09:42:13 PM 40.7642 -112.7930 264° West 427 491 38,000  Level FlightAware ADS-B
Tue 09:42:45 PM 40.7572 -112.8740 264° West 429 494 38,000  Level FlightAware ADS-B
Tue 09:43:15 PM 40.7505 -112.9520 264° West 429 494 38,000  Level FlightAware ADS-B
Tue 09:43:45 PM 40.7437 -113.0310 264° West 430 495 38,000  Level FlightAware ADS-B
Tue 09:44:16 PM 40.7368 -113.1110 264° West 430 495 38,000  Level FlightAware ADS-B
Tue 09:44:46 PM 40.7300 -113.1890 263° West 430 495 38,000  Level FlightAware ADS-B
Tue 09:45:16 PM 40.7231 -113.2670 263° West 429 494 38,000  Level FlightAware ADS-B
Tue 09:45:47 PM 40.7159 -113.3470 263° West 427 491 38,000  Level FlightAware ADS-B
Tue 09:46:18 PM 40.7089 -113.4250 263° West 426 490 38,000  Level FlightAware ADS-B
Tue 09:46:51 PM 40.7012 -113.5110 263° West 425 489 38,000  Level FlightAware ADS-B
Tue 09:47:21 PM 40.6940 -113.5890 263° West 424 488 38,000  Level FlightAware ADS-B
Tue 09:47:52 PM 40.6870 -113.6660 263° West 422 486 38,000  Level FlightAware ADS-B
Tue 09:48:22 PM 40.6798 -113.7430 263° West 421 484 38,000  Level FlightAware ADS-B
Tue 09:48:53 PM 40.6726 -113.8200 263° West 419 482 38,000  Level FlightAware ADS-B
Tue 09:49:27 PM 40.6670 -113.8820 263° West 421 484 38,000  Level FlightAware ADS-B
Tue 09:49:39 PM 40.6614 -113.9380 263° West 418 481 38,000  Level FlightAware ADS-B
Tue 09:50:10 PM 40.6542 -114.0140 263° West 418 481 38,000  Level FlightAware ADS-B
Tue 09:50:40 PM 40.6470 -114.0900 263° West 418 481 38,000  Level FlightAware ADS-B
Tue 09:51:10 PM 40.6396 -114.1670 263° West 418 481 38,000  Level FlightAware ADS-B
Tue 09:51:41 PM 40.6321 -114.2440 263° West 419 482 38,000  Level FlightAware ADS-B
Tue 09:52:12 PM 40.6245 -114.3220 263° West 419 482 38,000  Level FlightAware ADS-B
Tue 09:52:42 PM 40.6169 -114.3980 263° West 420 483 38,000  Level FlightAware ADS-B
Tue 09:53:12 PM 40.6094 -114.4740 263° West 422 486 38,000  Level FlightAware ADS-B
Tue 09:53:43 PM 40.6016 -114.5520 263° West 422 486 38,000  Level FlightAware ADS-B
Tue 09:54:13 PM 40.5939 -114.6280 262° West 422 486 38,000  Level FlightAware ADS-B
Tue 09:54:43 PM 40.5862 -114.7040 262° West 422 486 38,000  Level FlightAware ADS-B
Tue 09:55:14 PM 40.5781 -114.7840 262° West 423 487 38,000  Level FlightAware ADS-B
Tue 09:56:04 PM 40.5870 -114.7420 74° East 421 484 38,000  Level FlightAware ADS-B
Tue 09:56:40 PM 40.5790 -114.8200 262° West 421 484 38,000  Level FlightAware ADS-B
Tue 09:57:01 PM 40.5502 -115.0540 261° West 420 483 38,000  Level FlightAware ADS-B
Tue 09:57:31 PM 40.5420 -115.1310 262° West 421 484 38,000  Level FlightAware ADS-B
Tue 09:58:02 PM 40.5340 -115.2080 262° West 421 484 38,000  Level FlightAware ADS-B
Tue 09:58:32 PM 40.5260 -115.2840 262° West 420 483 38,000  Level FlightAware ADS-B
Tue 09:58:47 PM 40.5217 -115.3230 262° West 418 481 38,000  Level FlightAware ADS-B
Tue 09:59:17 PM 40.5092 -115.3970 257° West 415 478 38,000  Level FlightAware ADS-B
Tue 09:59:50 PM 40.4949 -115.4770 257° West 417 480 38,000 356 Level FlightAware ADS-B
Tue 10:04:54 PM 40.3930 -116.2380 260° West 422 486 40,000 373 Climbing FlightAware ADS-B
Tue 10:05:12 PM 40.3885 -116.2830 263° West 423 487 40,000  Level FlightAware ADS-B
Tue 10:05:42 PM 40.3823 -116.3600 264° West 419 482 40,000  Level FlightAware ADS-B
Tue 10:06:19 PM 40.3753 -116.4530 264° West 420 483 40,000  Level FlightAware ADS-B
Tue 10:06:53 PM 40.3687 -116.5390 264° West 420 483 40,000  Level FlightAware ADS-B
Tue 10:07:29 PM 40.3613 -116.6300 264° West 422 486 40,000  Level FlightAware ADS-B
Tue 10:13:02 PM 40.2730 -117.4570 262° West 416 479 40,000 -49 Level FlightAware ADS-B
Tue 10:13:36 PM 40.2620 -117.5410 260° West 418 481 39,700 -429 Descending FlightAware ADS-B
Tue 10:14:12 PM 40.2510 -117.6220 260° West 419 482 39,500 -1,250 Descending FlightAware ADS-B
Tue 10:14:48 PM 40.2380 -117.7260 261° West 430 495 38,200 -1,853 Descending FlightAware ADS-B
Tue 10:15:20 PM 40.2270 -117.8100 260° West 440 506 37,400 -940 Descending FlightAware ADS-B
Tue 10:16:11 PM 40.2120 -117.9290 261° West 444 511 36,900 -1,605 Descending FlightAware ADS-B
Tue 10:16:46 PM 40.1970 -118.0390 260° West 460 529 35,100 -2,522 Descending FlightAware ADS-B
Tue 10:17:20 PM 40.1850 -118.1340 261° West 461 531 34,000 -1,941 Descending FlightAware ADS-B
Tue 10:17:54 PM 40.1730 -118.2270 260° West 460 529 32,900 -1,917 Descending FlightAware ADS-B
Tue 10:18:32 PM 40.1590 -118.3300 260° West 462 532 31,700 -2,027 Descending FlightAware ADS-B
Tue 10:19:08 PM 40.1450 -118.4310 260° West 465 535 30,400 -2,250 Descending FlightAware ADS-B
Tue 10:19:44 PM 40.1320 -118.5290 260° West 458 527 29,000 -2,382 Descending FlightAware ADS-B
Tue 10:20:16 PM 40.1190 -118.6130 259° West 444 511 27,700 -2,559 Descending FlightAware ADS-B
Tue 10:20:52 PM 40.1010 -118.7060 256° West 435 501 26,100 -2,471 Descending FlightAware ADS-B
Tue 10:21:24 PM 40.0860 -118.7820 256° West 430 495 24,900 -2,471 Descending FlightAware ADS-B
Tue 10:22:00 PM 40.0680 -118.8760 256° West 416 479 23,300 -2,417 Descending FlightAware ADS-B
Tue 10:22:36 PM 40.0510 -118.9610 255° West 405 466 22,000 -2,250 Descending FlightAware ADS-B
Tue 10:23:12 PM 40.0350 -119.0460 256° West 392 451 20,600 -2,206 Descending FlightAware ADS-B
Tue 10:23:44 PM 40.0200 -119.1170 255° West 380 437 19,500 -1,400 Descending FlightAware ADS-B
Tue 10:24:42 PM 39.9970 -119.2310 255° West 369 425 18,500 -638 Descending FlightAware ADS-B
Tue 10:25:18 PM 39.9840 -119.2970 256° West 369 425 18,500 -2,364 Level FlightAware ADS-B
Tue 10:25:48 PM 39.9700 -119.3700 256° West 315 362 15,900 -3,167 Descending FlightAware ADS-B
Tue 10:26:30 PM 39.9590 -119.4470 259° West 311 358 14,700 -1,629 Descending FlightAware ADS-B
Tue 10:26:58 PM 39.9590 -119.4810 270° West 310 357 14,000 -2,174 Descending FlightAware ADS-B
Tue 10:27:39 PM 39.9570 -119.5730 268° West 306 352 12,200 -2,027 Descending FlightAware ADS-B
Tue 10:28:12 PM 39.9550 -119.6360 268° West 302 348 11,500 -870 Descending FlightAware ADS-B
Tue 10:28:48 PM 39.9540 -119.6980 269° West 274 315 11,200 -469 Descending FlightAware ADS-B
Tue 10:29:16 PM 39.9480 -119.7400 259° West 244 281 11,000 -750 Descending FlightAware ADS-B
Tue 10:29:28 PM 39.9390 -119.7530 228° Southwest 241 277 10,700 -1,500 Descending FlightAware ADS-B
Tue 10:29:36 PM 39.9300 -119.7580 203° Southwest 241 277 10,500 -1,135 Descending FlightAware ADS-B
Tue 10:30:05 PM 39.9000 -119.7660 192° South 240 276 10,000 -1,021 Descending FlightAware ADS-B
Tue 10:30:23 PM 39.8800 -119.7680 184° South 235 270 9,700 -750 Descending FlightAware ADS-B
Tue 10:31:01 PM 39.8390 -119.7680 180° South 235 270 9,300 -536 Descending FlightAware ADS-B
Tue 10:31:19 PM 39.8190 -119.7680 180° South 237 273 9,200 -558 Descending FlightAware ADS-B
Tue 10:31:44 PM 39.7920 -119.7680 180° South 236 272 8,900 -400 Descending FlightAware ADS-B
Tue 10:32:04 PM 39.7700 -119.7690 182° South 232 267 8,900 -146 Level FlightAware ADS-B
Tue 10:32:25 PM 39.7480 -119.7680 178° South 232 267 8,800 -667 Descending FlightAware ADS-B
Tue 10:32:40 PM 39.7320 -119.7680 180° South 234 269 8,500 -1,371 Descending FlightAware ADS-B
Tue 10:33:00 PM 39.7100 -119.7690 182° South 225 259 8,000 -1,167 Descending FlightAware ADS-B
Tue 10:33:16 PM 39.6930 -119.7690 180° South 222 255 7,800 -1,050 Descending FlightAware ADS-B
Tue 10:33:40 PM 39.6700 -119.7690 180° South 219 252 7,300 -1,102 Descending FlightAware ADS-B
Tue 10:34:05 PM 39.6450 -119.7690 180° South 205 236 6,900 -1,080 Descending FlightAware ADS-B
Tue 10:34:30 PM 39.6220 -119.7690 180° South 194 223 6,400 -1,000 Descending FlightAware ADS-B
Tue 10:34:53 PM 39.6030 -119.7690 180° South 173 199 6,100 -828 Descending FlightAware ADS-B
Tue 10:35:28 PM 39.5760 -119.7690 180° South 155 178 5,600 -842 Descending FlightAware ADS-B
Tue 10:35:50 PM 39.5610 -119.7690 180° South 157 181 5,300 -789 Descending FlightAware ADS-B
Tue 10:36:06 PM 39.5490 -119.7690 180° South 159 183 5,100 -900 Descending FlightAware ADS-B
Tue 10:36:30 PM 39.5310 -119.7690 180° South 166 191 4,700 -894 Descending FlightAware ADS-B
Tue 10:36:53 PM 39.5140 -119.7690 180° South 167 192 4,400 -783 Descending FlightAware ADS-B
Tue 10:37:14 PM 39.5000 -119.7690 180° South 130 150 -12,571 Descending FlightAware ADS-B

Login

Don't have an account? Register now (free) for customized features, flight alerts, and more!